sensor_id;sensor_type;location;lat;lon;timestamp;pressure;altitude;pressure_sealevel;temperature;humidity
71195;BME280;58908;51.426;7.714;2023-08-12T00:01:33;100022.88;;;20.80;100.00
71195;BME280;58908;51.426;7.714;2023-08-12T00:03:59;100021.91;;;20.72;100.00
71195;BME280;58908;51.426;7.714;2023-08-12T00:06:25;100026.56;;;20.70;100.00
71195;BME280;58908;51.426;7.714;2023-08-12T00:08:53;100040.53;;;20.73;100.00
71195;BME280;58908;51.426;7.714;2023-08-12T00:11:20;100026.88;;;20.67;100.00
71195;BME280;58908;51.426;7.714;2023-08-12T00:13:47;100025.44;;;20.63;100.00
71195;BME280;58908;51.426;7.714;2023-08-12T00:16:13;100030.81;;;20.63;100.00
71195;BME280;58908;51.426;7.714;2023-08-12T00:18:39;100034.78;;;20.59;100.00
71195;BME280;58908;51.426;7.714;2023-08-12T00:21:06;100025.75;;;20.60;100.00
71195;BME280;58908;51.426;7.714;2023-08-12T00:23:36;100019.00;;;20.56;100.00
71195;BME280;58908;51.426;7.714;2023-08-12T00:26:03;100012.06;;;20.53;100.00
71195;BME280;58908;51.426;7.714;2023-08-12T00:28:31;100007.72;;;20.52;100.00
71195;BME280;58908;51.426;7.714;2023-08-12T00:30:57;99998.25;;;20.48;100.00
71195;BME280;58908;51.426;7.714;2023-08-12T00:33:23;100003.50;;;20.40;100.00
71195;BME280;58908;51.426;7.714;2023-08-12T00:35:49;100001.22;;;20.45;100.00
71195;BME280;58908;51.426;7.714;2023-08-12T00:38:16;99995.47;;;20.40;100.00
71195;BME280;58908;51.426;7.714;2023-08-12T00:40:42;99979.63;;;20.37;100.00
71195;BME280;58908;51.426;7.714;2023-08-12T00:43:08;99979.94;;;20.34;100.00
71195;BME280;58908;51.426;7.714;2023-08-12T00:45:36;99984.59;;;20.32;100.00
71195;BME280;58908;51.426;7.714;2023-08-12T00:48:03;99980.38;;;20.30;100.00
71195;BME280;58908;51.426;7.714;2023-08-12T00:50:29;99986.41;;;20.32;100.00
71195;BME280;58908;51.426;7.714;2023-08-12T00:52:56;99993.75;;;20.30;100.00
71195;BME280;58908;51.426;7.714;2023-08-12T00:55:23;99984.88;;;20.20;100.00
71195;BME280;58908;51.426;7.714;2023-08-12T00:57:49;99985.75;;;20.20;100.00
71195;BME280;58908;51.426;7.714;2023-08-12T01:00:16;99990.41;;;20.18;100.00
71195;BME280;58908;51.426;7.714;2023-08-12T01:02:47;99986.03;;;20.17;100.00
71195;BME280;58908;51.426;7.714;2023-08-12T01:05:14;99986.59;;;20.11;100.00
71195;BME280;58908;51.426;7.714;2023-08-12T01:07:45;99981.22;;;20.11;100.00
71195;BME280;58908;51.426;7.714;2023-08-12T01:10:11;99979.53;;;20.10;100.00
71195;BME280;58908;51.426;7.714;2023-08-12T01:12:41;99974.19;;;20.10;100.00
71195;BME280;58908;51.426;7.714;2023-08-12T01:15:13;99989.69;;;20.07;100.00
71195;BME280;58908;51.426;7.714;2023-08-12T01:17:41;99983.50;;;20.06;100.00
71195;BME280;58908;51.426;7.714;2023-08-12T01:20:09;99981.22;;;20.02;100.00
71195;BME280;58908;51.426;7.714;2023-08-12T01:22:37;99980.09;;;20.04;100.00
71195;BME280;58908;51.426;7.714;2023-08-12T01:25:07;99984.63;;;20.04;100.00
71195;BME280;58908;51.426;7.714;2023-08-12T01:27:34;99989.00;;;20.05;100.00
71195;BME280;58908;51.426;7.714;2023-08-12T01:30:00;99986.56;;;20.02;100.00
71195;BME280;58908;51.426;7.714;2023-08-12T01:32:29;99983.91;;;20.02;100.00
71195;BME280;58908;51.426;7.714;2023-08-12T01:34:57;99979.66;;;19.99;100.00
71195;BME280;58908;51.426;7.714;2023-08-12T01:37:28;99982.88;;;19.93;100.00
71195;BME280;58908;51.426;7.714;2023-08-12T01:39:55;99968.25;;;19.97;100.00
71195;BME280;58908;51.426;7.714;2023-08-12T01:42:30;99967.69;;;19.84;100.00
71195;BME280;58908;51.426;7.714;2023-08-12T01:44:57;99963.44;;;19.82;100.00
71195;BME280;58908;51.426;7.714;2023-08-12T01:47:24;99964.84;;;19.76;100.00
71195;BME280;58908;51.426;7.714;2023-08-12T01:49:51;99964.00;;;19.76;100.00
71195;BME280;58908;51.426;7.714;2023-08-12T01:52:18;99965.25;;;19.81;100.00
71195;BME280;58908;51.426;7.714;2023-08-12T01:54:44;99959.09;;;19.81;100.00
71195;BME280;58908;51.426;7.714;2023-08-12T01:57:10;99965.53;;;19.88;100.00
71195;BME280;58908;51.426;7.714;2023-08-12T01:59:38;99961.47;;;19.84;100.00
71195;BME280;58908;51.426;7.714;2023-08-12T02:02:05;99959.66;;;19.84;100.00
71195;BME280;58908;51.426;7.714;2023-08-12T02:04:31;99953.16;;;19.77;100.00
71195;BME280;58908;51.426;7.714;2023-08-12T02:06:57;99949.78;;;19.75;100.00
71195;BME280;58908;51.426;7.714;2023-08-12T02:09:24;99948.63;;;19.68;100.00
71195;BME280;58908;51.426;7.714;2023-08-12T02:11:50;99941.88;;;19.74;100.00
71195;BME280;58908;51.426;7.714;2023-08-12T02:14:16;99934.44;;;19.68;100.00
71195;BME280;58908;51.426;7.714;2023-08-12T02:16:44;99932.28;;;19.62;100.00
71195;BME280;58908;51.426;7.714;2023-08-12T02:19:10;99930.03;;;19.57;100.00
71195;BME280;58908;51.426;7.714;2023-08-12T02:21:36;99921.31;;;19.55;100.00
71195;BME280;58908;51.426;7.714;2023-08-12T02:24:03;99921.19;;;19.57;100.00
71195;BME280;58908;51.426;7.714;2023-08-12T02:26:29;99913.56;;;19.52;100.00
71195;BME280;58908;51.426;7.714;2023-08-12T02:28:55;99911.47;;;19.56;100.00
71195;BME280;58908;51.426;7.714;2023-08-12T02:31:22;99910.03;;;19.52;100.00
71195;BME280;58908;51.426;7.714;2023-08-12T02:33:50;99904.84;;;19.51;100.00
71195;BME280;58908;51.426;7.714;2023-08-12T02:36:16;99899.75;;;19.48;100.00
71195;BME280;58908;51.426;7.714;2023-08-12T02:38:42;99901.03;;;19.44;100.00
71195;BME280;58908;51.426;7.714;2023-08-12T02:41:08;99894.69;;;19.45;100.00
71195;BME280;58908;51.426;7.714;2023-08-12T02:43:35;99890.03;;;19.47;100.00
71195;BME280;58908;51.426;7.714;2023-08-12T02:46:01;99883.28;;;19.43;100.00
71195;BME280;58908;51.426;7.714;2023-08-12T02:48:27;99884.97;;;19.44;100.00
71195;BME280;58908;51.426;7.714;2023-08-12T02:50:55;99885.25;;;19.50;100.00
71195;BME280;58908;51.426;7.714;2023-08-12T02:53:21;99887.09;;;19.50;100.00
71195;BME280;58908;51.426;7.714;2023-08-12T02:55:47;99891.72;;;19.48;100.00
71195;BME280;58908;51.426;7.714;2023-08-12T02:58:14;99882.16;;;19.45;100.00
71195;BME280;58908;51.426;7.714;2023-08-12T03:00:40;99883.41;;;19.41;100.00
71195;BME280;58908;51.426;7.714;2023-08-12T03:03:07;99881.59;;;19.42;100.00
71195;BME280;58908;51.426;7.714;2023-08-12T03:05:33;99877.34;;;19.39;100.00
71195;BME280;58908;51.426;7.714;2023-08-12T03:08:01;99876.38;;;19.31;100.00
71195;BME280;58908;51.426;7.714;2023-08-12T03:10:28;99877.34;;;19.30;100.00
71195;BME280;58908;51.426;7.714;2023-08-12T03:12:55;99869.91;;;19.33;100.00
71195;BME280;58908;51.426;7.714;2023-08-12T03:15:21;99861.84;;;19.24;100.00
71195;BME280;58908;51.426;7.714;2023-08-12T03:17:47;99858.47;;;19.22;100.00
71195;BME280;58908;51.426;7.714;2023-08-12T03:20:14;99851.72;;;19.18;100.00
71195;BME280;58908;51.426;7.714;2023-08-12T03:22:40;99845.59;;;19.16;100.00
71195;BME280;58908;51.426;7.714;2023-08-12T03:25:08;99845.91;;;19.13;100.00
71195;BME280;58908;51.426;7.714;2023-08-12T03:27:34;99836.06;;;19.13;100.00
71195;BME280;58908;51.426;7.714;2023-08-12T03:30:01;99829.84;;;19.13;100.00
71195;BME280;58908;51.426;7.714;2023-08-12T03:32:28;99834.50;;;19.11;100.00
71195;BME280;58908;51.426;7.714;2023-08-12T03:34:55;99822.69;;;19.13;100.00
71195;BME280;58908;51.426;7.714;2023-08-12T03:37:21;99826.75;;;19.17;100.00
71195;BME280;58908;51.426;7.714;2023-08-12T03:39:47;99819.63;;;19.18;100.00
71195;BME280;58908;51.426;7.714;2023-08-12T03:42:15;99824.81;;;19.19;100.00
71195;BME280;58908;51.426;7.714;2023-08-12T03:44:42;99812.69;;;19.15;100.00
71195;BME280;58908;51.426;7.714;2023-08-12T03:47:08;99812.56;;;19.17;100.00
71195;BME280;58908;51.426;7.714;2023-08-12T03:49:34;99812.69;;;19.15;100.00
71195;BME280;58908;51.426;7.714;2023-08-12T03:52:00;99811.00;;;19.14;100.00
71195;BME280;58908;51.426;7.714;2023-08-12T03:54:27;99814.66;;;19.13;100.00
71195;BME280;58908;51.426;7.714;2023-08-12T03:56:53;99803.28;;;19.11;100.00
71195;BME280;58908;51.426;7.714;2023-08-12T03:59:21;99803.81;;;19.15;100.00
71195;BME280;58908;51.426;7.714;2023-08-12T04:01:48;99803.41;;;19.10;100.00
71195;BME280;58908;51.426;7.714;2023-08-12T04:04:14;99802.28;;;19.12;100.00
71195;BME280;58908;51.426;7.714;2023-08-12T04:06:40;99809.31;;;19.13;100.00
71195;BME280;58908;51.426;7.714;2023-08-12T04:09:06;99798.63;;;19.13;100.00
71195;BME280;58908;51.426;7.714;2023-08-12T04:11:33;99804.66;;;19.15;100.00
71195;BME280;58908;51.426;7.714;2023-08-12T04:13:59;99798.22;;;19.18;100.00
71195;BME280;58908;51.426;7.714;2023-08-12T04:16:26;99794.38;;;19.11;100.00
71195;BME280;58908;51.426;7.714;2023-08-12T04:18:53;99795.38;;;19.10;100.00
71195;BME280;58908;51.426;7.714;2023-08-12T04:21:19;99800.28;;;19.05;100.00
71195;BME280;58908;51.426;7.714;2023-08-12T04:23:45;99809.56;;;19.01;100.00
71195;BME280;58908;51.426;7.714;2023-08-12T04:26:12;99800.56;;;18.92;100.00
71195;BME280;58908;51.426;7.714;2023-08-12T04:28:38;99801.56;;;18.91;100.00
71195;BME280;58908;51.426;7.714;2023-08-12T04:31:05;99784.94;;;18.88;100.00
71195;BME280;58908;51.426;7.714;2023-08-12T04:33:33;99788.88;;;18.93;100.00
71195;BME280;58908;51.426;7.714;2023-08-12T04:36:00;99792.13;;;18.97;100.00
71195;BME280;58908;51.426;7.714;2023-08-12T04:38:26;99782.44;;;18.96;100.00
71195;BME280;58908;51.426;7.714;2023-08-12T04:40:52;99775.53;;;18.93;100.00
71195;BME280;58908;51.426;7.714;2023-08-12T04:43:19;99769.47;;;18.91;100.00
71195;BME280;58908;51.426;7.714;2023-08-12T04:45:45;99765.81;;;18.92;100.00
71195;BME280;58908;51.426;7.714;2023-08-12T04:48:11;99762.97;;;18.94;100.00
71195;BME280;58908;51.426;7.714;2023-08-12T04:50:39;99765.41;;;18.97;100.00
71195;BME280;58908;51.426;7.714;2023-08-12T04:53:05;99768.34;;;19.13;100.00
71195;BME280;58908;51.426;7.714;2023-08-12T04:55:32;99759.22;;;19.06;100.00
71195;BME280;58908;51.426;7.714;2023-08-12T04:57:58;99769.06;;;19.05;100.00
71195;BME280;58908;51.426;7.714;2023-08-12T05:00:24;99762.28;;;19.11;100.00
71195;BME280;58908;51.426;7.714;2023-08-12T05:02:50;99761.63;;;19.18;100.00
71195;BME280;58908;51.426;7.714;2023-08-12T05:05:17;99767.53;;;19.31;100.00
71195;BME280;58908;51.426;7.714;2023-08-12T05:07:44;99762.28;;;19.48;100.00
71195;BME280;58908;51.426;7.714;2023-08-12T05:10:13;99769.19;;;19.51;100.00
71195;BME280;58908;51.426;7.714;2023-08-12T05:12:39;99772.03;;;19.40;100.00
71195;BME280;58908;51.426;7.714;2023-08-12T05:15:06;99762.47;;;19.28;100.00
71195;BME280;58908;51.426;7.714;2023-08-12T05:17:33;99757.09;;;19.38;100.00
71195;BME280;58908;51.426;7.714;2023-08-12T05:19:59;99757.53;;;19.43;100.00
71195;BME280;58908;51.426;7.714;2023-08-12T05:22:25;99759.59;;;19.48;100.00
71195;BME280;58908;51.426;7.714;2023-08-12T05:24:53;99751.16;;;19.53;100.00
71195;BME280;58908;51.426;7.714;2023-08-12T05:27:19;99749.91;;;19.57;100.00
71195;BME280;58908;51.426;7.714;2023-08-12T05:29:46;99744.66;;;19.65;100.00
71195;BME280;58908;51.426;7.714;2023-08-12T05:32:12;99737.59;;;19.64;100.00
71195;BME280;58908;51.426;7.714;2023-08-12T05:34:38;99749.69;;;19.77;100.00
71195;BME280;58908;51.426;7.714;2023-08-12T05:37:04;99749.69;;;19.77;100.00
71195;BME280;58908;51.426;7.714;2023-08-12T05:39:31;99746.28;;;19.85;100.00
71195;BME280;58908;51.426;7.714;2023-08-12T05:41:58;99757.03;;;19.75;100.00
71195;BME280;58908;51.426;7.714;2023-08-12T05:44:24;99758.84;;;19.75;100.00
71195;BME280;58908;51.426;7.714;2023-08-12T05:46:51;99757.47;;;19.71;100.00
71195;BME280;58908;51.426;7.714;2023-08-12T05:49:17;99760.41;;;19.77;100.00
71195;BME280;58908;51.426;7.714;2023-08-12T05:51:44;99763.66;;;19.71;100.00
71195;BME280;58908;51.426;7.714;2023-08-12T05:54:10;99765.03;;;19.85;100.00
71195;BME280;58908;51.426;7.714;2023-08-12T05:56:36;99763.78;;;19.79;100.00
71195;BME280;58908;51.426;7.714;2023-08-12T05:59:04;99767.56;;;19.86;100.00
71195;BME280;58908;51.426;7.714;2023-08-12T06:01:31;99762.88;;;19.98;100.00
71195;BME280;58908;51.426;7.714;2023-08-12T06:03:57;99768.94;;;20.09;100.00
71195;BME280;58908;51.426;7.714;2023-08-12T06:06:23;99767.69;;;20.04;100.00
71195;BME280;58908;51.426;7.714;2023-08-12T06:08:49;99772.00;;;20.14;100.00
71195;BME280;58908;51.426;7.714;2023-08-12T06:11:16;99762.50;;;20.29;100.00
71195;BME280;58908;51.426;7.714;2023-08-12T06:13:42;99766.44;;;20.35;100.00
71195;BME280;58908;51.426;7.714;2023-08-12T06:16:10;99767.75;;;20.48;100.00
71195;BME280;58908;51.426;7.714;2023-08-12T06:18:36;99770.53;;;20.56;100.00
71195;BME280;58908;51.426;7.714;2023-08-12T06:21:02;99768.84;;;20.55;100.00
71195;BME280;58908;51.426;7.714;2023-08-12T06:23:29;99773.16;;;20.66;100.00
71195;BME280;58908;51.426;7.714;2023-08-12T06:25:55;99780.22;;;20.67;100.00
71195;BME280;58908;51.426;7.714;2023-08-12T06:28:22;99767.72;;;20.58;100.00
71195;BME280;58908;51.426;7.714;2023-08-12T06:30:48;99764.13;;;20.67;100.00
71195;BME280;58908;51.426;7.714;2023-08-12T06:33:16;99773.78;;;20.77;100.00
71195;BME280;58908;51.426;7.714;2023-08-12T06:35:42;99769.22;;;20.60;100.00
71195;BME280;58908;51.426;7.714;2023-08-12T06:38:08;99770.97;;;20.52;100.00
71195;BME280;58908;51.426;7.714;2023-08-12T06:40:35;99766.81;;;20.40;100.00
71195;BME280;58908;51.426;7.714;2023-08-12T06:43:01;99766.31;;;20.27;100.00
71195;BME280;58908;51.426;7.714;2023-08-12T06:45:27;99765.06;;;20.21;100.00
71195;BME280;58908;51.426;7.714;2023-08-12T06:47:54;99762.66;;;20.28;100.00
71195;BME280;58908;51.426;7.714;2023-08-12T06:50:21;99775.28;;;20.08;100.00
71195;BME280;58908;51.426;7.714;2023-08-12T06:52:48;99777.41;;;20.05;100.00
71195;BME280;58908;51.426;7.714;2023-08-12T06:55:14;99779.22;;;19.95;100.00
71195;BME280;58908;51.426;7.714;2023-08-12T06:57:40;99772.50;;;19.91;100.00
71195;BME280;58908;51.426;7.714;2023-08-12T07:00:07;99783.22;;;19.91;100.00
71195;BME280;58908;51.426;7.714;2023-08-12T07:02:34;99776.41;;;19.96;100.00
71195;BME280;58908;51.426;7.714;2023-08-12T07:05:00;99782.06;;;20.03;100.00
71195;BME280;58908;51.426;7.714;2023-08-12T07:07:28;99775.00;;;20.02;100.00
71195;BME280;58908;51.426;7.714;2023-08-12T07:09:54;99769.09;;;19.98;100.00
71195;BME280;58908;51.426;7.714;2023-08-12T07:12:21;99768.09;;;19.99;100.00
71195;BME280;58908;51.426;7.714;2023-08-12T07:14:47;99758.13;;;19.92;100.00
71195;BME280;58908;51.426;7.714;2023-08-12T07:17:13;99744.47;;;19.85;100.00
71195;BME280;58908;51.426;7.714;2023-08-12T07:19:39;99745.47;;;19.75;100.00
71195;BME280;58908;51.426;7.714;2023-08-12T07:22:06;99737.19;;;19.68;100.00
71195;BME280;58908;51.426;7.714;2023-08-12T07:24:34;99726.63;;;19.67;100.00
71195;BME280;58908;51.426;7.714;2023-08-12T07:27:00;99713.81;;;19.61;100.00
71195;BME280;58908;51.426;7.714;2023-08-12T07:29:26;99704.81;;;19.62;100.00
71195;BME280;58908;51.426;7.714;2023-08-12T07:31:53;99705.53;;;19.54;100.00
71195;BME280;58908;51.426;7.714;2023-08-12T07:34:19;99703.25;;;19.59;100.00
71195;BME280;58908;51.426;7.714;2023-08-12T07:36:45;99704.97;;;19.51;100.00
71195;BME280;58908;51.426;7.714;2023-08-12T07:39:12;99708.50;;;19.52;100.00
71195;BME280;58908;51.426;7.714;2023-08-12T07:41:39;99704.28;;;19.49;100.00
71195;BME280;58908;51.426;7.714;2023-08-12T07:44:06;99694.44;;;19.50;100.00
71195;BME280;58908;51.426;7.714;2023-08-12T07:46:32;99689.59;;;19.62;100.00
71195;BME280;58908;51.426;7.714;2023-08-12T07:48:58;99675.78;;;19.67;100.00
71195;BME280;58908;51.426;7.714;2023-08-12T07:51:24;99686.75;;;19.73;100.00
71195;BME280;58908;51.426;7.714;2023-08-12T07:53:51;99681.78;;;19.78;100.00
71195;BME280;58908;51.426;7.714;2023-08-12T07:56:17;99696.53;;;19.82;100.00
71195;BME280;58908;51.426;7.714;2023-08-12T07:58:44;99703.69;;;20.01;100.00
71195;BME280;58908;51.426;7.714;2023-08-12T08:01:12;99716.50;;;20.34;100.00
71195;BME280;58908;51.426;7.714;2023-08-12T08:03:39;99719.53;;;20.66;100.00
71195;BME280;58908;51.426;7.714;2023-08-12T08:06:05;99728.09;;;21.14;100.00
71195;BME280;58908;51.426;7.714;2023-08-12T08:08:31;99747.75;;;22.08;100.00
71195;BME280;58908;51.426;7.714;2023-08-12T08:10:57;99745.31;;;22.22;100.00
71195;BME280;58908;51.426;7.714;2023-08-12T08:13:24;99732.94;;;22.04;100.00
71195;BME280;58908;51.426;7.714;2023-08-12T08:15:51;99723.78;;;22.14;100.00
71195;BME280;58908;51.426;7.714;2023-08-12T08:18:18;99723.53;;;22.00;100.00
71195;BME280;58908;51.426;7.714;2023-08-12T08:20:44;99720.16;;;21.73;100.00
71195;BME280;58908;51.426;7.714;2023-08-12T08:23:10;99726.06;;;21.33;100.00
71195;BME280;58908;51.426;7.714;2023-08-12T08:25:36;99728.94;;;21.57;100.00
71195;BME280;58908;51.426;7.714;2023-08-12T08:28:03;99720.97;;;21.65;100.00
71195;BME280;58908;51.426;7.714;2023-08-12T08:30:29;99716.38;;;21.58;100.00
71195;BME280;58908;51.426;7.714;2023-08-12T08:32:57;99697.81;;;21.64;100.00
71195;BME280;58908;51.426;7.714;2023-08-12T08:35:23;99686.84;;;21.83;100.00
71195;BME280;58908;51.426;7.714;2023-08-12T08:37:50;99683.41;;;22.07;100.00
71195;BME280;58908;51.426;7.714;2023-08-12T08:40:16;99672.16;;;21.70;100.00
71195;BME280;58908;51.426;7.714;2023-08-12T08:42:42;99686.19;;;21.89;100.00
71195;BME280;58908;51.426;7.714;2023-08-12T08:45:11;99694.72;;;22.18;100.00
71195;BME280;58908;51.426;7.714;2023-08-12T08:47:38;99688.44;;;22.02;100.00
71195;BME280;58908;51.426;7.714;2023-08-12T08:50:07;99691.84;;;22.12;100.00
71195;BME280;58908;51.426;7.714;2023-08-12T08:52:34;99686.19;;;22.22;100.00
71195;BME280;58908;51.426;7.714;2023-08-12T08:55:01;99694.69;;;22.51;100.00
71195;BME280;58908;51.426;7.714;2023-08-12T08:57:27;99685.34;;;22.79;100.00
71195;BME280;58908;51.426;7.714;2023-08-12T08:59:54;99689.88;;;22.79;100.00
71195;BME280;58908;51.426;7.714;2023-08-12T09:02:21;99688.88;;;22.88;100.00
71195;BME280;58908;51.426;7.714;2023-08-12T09:04:48;99693.25;;;22.73;100.00
71195;BME280;58908;51.426;7.714;2023-08-12T09:07:17;99688.06;;;23.03;100.00
71195;BME280;58908;51.426;7.714;2023-08-12T09:09:44;99684.34;;;23.04;100.00
71195;BME280;58908;51.426;7.714;2023-08-12T09:12:11;99684.34;;;23.04;100.00
71195;BME280;58908;51.426;7.714;2023-08-12T09:14:39;99690.25;;;23.24;100.00
71195;BME280;58908;51.426;7.714;2023-08-12T09:17:06;99675.63;;;23.34;100.00
71195;BME280;58908;51.426;7.714;2023-08-12T09:19:32;99679.50;;;23.32;100.00
71195;BME280;58908;51.426;7.714;2023-08-12T09:21:59;99680.84;;;23.44;100.00
71195;BME280;58908;51.426;7.714;2023-08-12T09:24:27;99686.88;;;23.46;100.00
71195;BME280;58908;51.426;7.714;2023-08-12T09:26:54;99681.81;;;23.59;100.00
71195;BME280;58908;51.426;7.714;2023-08-12T09:29:22;99701.81;;;23.72;100.00
71195;BME280;58908;51.426;7.714;2023-08-12T09:31:48;99690.88;;;23.74;100.00
71195;BME280;58908;51.426;7.714;2023-08-12T09:34:14;99698.31;;;23.64;100.00
71195;BME280;58908;51.426;7.714;2023-08-12T09:36:41;99701.88;;;23.16;100.00
71195;BME280;58908;51.426;7.714;2023-08-12T09:39:07;99722.06;;;22.47;100.00
71195;BME280;58908;51.426;7.714;2023-08-12T09:41:36;99726.44;;;22.48;100.00
71195;BME280;58908;51.426;7.714;2023-08-12T09:44:03;99728.38;;;22.38;100.00
71195;BME280;58908;51.426;7.714;2023-08-12T09:46:29;99724.34;;;22.34;100.00
71195;BME280;58908;51.426;7.714;2023-08-12T09:48:58;99727.72;;;22.36;100.00
71195;BME280;58908;51.426;7.714;2023-08-12T09:51:24;99729.19;;;22.30;100.00
71195;BME280;58908;51.426;7.714;2023-08-12T09:53:51;99726.88;;;22.35;100.00
71195;BME280;58908;51.426;7.714;2023-08-12T09:56:18;99734.59;;;21.97;100.00
71195;BME280;58908;51.426;7.714;2023-08-12T09:58:48;99721.41;;;22.19;100.00
71195;BME280;58908;51.426;7.714;2023-08-12T10:01:15;99723.59;;;22.49;100.00
71195;BME280;58908;51.426;7.714;2023-08-12T10:03:44;99713.13;;;23.36;100.00
71195;BME280;58908;51.426;7.714;2023-08-12T10:06:12;99696.03;;;24.07;100.00
71195;BME280;58908;51.426;7.714;2023-08-12T10:08:38;99687.69;;;24.25;100.00
71195;BME280;58908;51.426;7.714;2023-08-12T10:11:05;99686.72;;;24.18;100.00
71195;BME280;58908;51.426;7.714;2023-08-12T10:13:33;99707.53;;;23.93;100.00
71195;BME280;58908;51.426;7.714;2023-08-12T10:16:01;99685.44;;;23.82;100.00
71195;BME280;58908;51.426;7.714;2023-08-12T10:18:28;99690.13;;;24.04;100.00
71195;BME280;58908;51.426;7.714;2023-08-12T10:20:54;99695.09;;;24.31;100.00
71195;BME280;58908;51.426;7.714;2023-08-12T10:23:22;99688.22;;;24.20;100.00
71195;BME280;58908;51.426;7.714;2023-08-12T10:25:50;99664.88;;;24.74;100.00
71195;BME280;58908;51.426;7.714;2023-08-12T10:28:19;99681.66;;;24.83;100.00
71195;BME280;58908;51.426;7.714;2023-08-12T10:30:46;99676.56;;;24.28;100.00
71195;BME280;58908;51.426;7.714;2023-08-12T10:33:15;99678.56;;;24.26;100.00
71195;BME280;58908;51.426;7.714;2023-08-12T10:35:42;99671.50;;;24.63;100.00
71195;BME280;58908;51.426;7.714;2023-08-12T10:38:11;99662.47;;;24.56;100.00
71195;BME280;58908;51.426;7.714;2023-08-12T10:40:37;99683.81;;;24.66;100.00
71195;BME280;58908;51.426;7.714;2023-08-12T10:43:04;99656.53;;;24.83;100.00
71195;BME280;58908;51.426;7.714;2023-08-12T10:45:40;99666.31;;;24.62;100.00
71195;BME280;58908;51.426;7.714;2023-08-12T10:48:15;99675.50;;;23.98;100.00
71195;BME280;58908;51.426;7.714;2023-08-12T10:50:44;99696.44;;;23.72;100.00
71195;BME280;58908;51.426;7.714;2023-08-12T10:53:20;99699.69;;;23.44;100.00
71195;BME280;58908;51.426;7.714;2023-08-12T10:55:48;99693.09;;;23.54;100.00
71195;BME280;58908;51.426;7.714;2023-08-12T10:58:23;99694.25;;;23.84;100.00
71195;BME280;58908;51.426;7.714;2023-08-12T11:00:51;99683.81;;;23.73;100.00
71195;BME280;58908;51.426;7.714;2023-08-12T11:03:18;99689.41;;;23.47;100.00
71195;BME280;58908;51.426;7.714;2023-08-12T11:05:46;99697.66;;;23.06;100.00
71195;BME280;58908;51.426;7.714;2023-08-12T11:08:13;99703.41;;;23.19;100.00
71195;BME280;58908;51.426;7.714;2023-08-12T11:10:39;99686.22;;;23.52;100.00
71195;BME280;58908;51.426;7.714;2023-08-12T11:13:06;99671.06;;;23.51;100.00
71195;BME280;58908;51.426;7.714;2023-08-12T11:15:34;99670.97;;;23.91;100.00
71195;BME280;58908;51.426;7.714;2023-08-12T11:18:02;99655.03;;;24.20;100.00
71195;BME280;58908;51.426;7.714;2023-08-12T11:20:29;99657.84;;;24.34;100.00
71195;BME280;58908;51.426;7.714;2023-08-12T11:22:57;99643.13;;;24.37;100.00
71195;BME280;58908;51.426;7.714;2023-08-12T11:25:23;99610.31;;;25.37;100.00
71195;BME280;58908;51.426;7.714;2023-08-12T11:27:50;99605.09;;;26.23;100.00
71195;BME280;58908;51.426;7.714;2023-08-12T11:30:16;99574.56;;;26.85;100.00
71195;BME280;58908;51.426;7.714;2023-08-12T11:32:43;99590.69;;;25.72;100.00
71195;BME280;58908;51.426;7.714;2023-08-12T11:35:11;99599.53;;;25.23;100.00
71195;BME280;58908;51.426;7.714;2023-08-12T11:37:37;99592.47;;;25.51;100.00
71195;BME280;58908;51.426;7.714;2023-08-12T11:40:06;99610.25;;;25.45;100.00
71195;BME280;58908;51.426;7.714;2023-08-12T11:42:34;99594.72;;;25.91;100.00
71195;BME280;58908;51.426;7.714;2023-08-12T11:45:00;99587.34;;;25.41;100.00
71195;BME280;58908;51.426;7.714;2023-08-12T11:47:27;99595.13;;;25.36;100.00
71195;BME280;58908;51.426;7.714;2023-08-12T11:50:04;99580.16;;;25.48;100.00
71195;BME280;58908;51.426;7.714;2023-08-12T11:52:30;99594.88;;;25.60;100.00
71195;BME280;58908;51.426;7.714;2023-08-12T11:54:57;99573.16;;;26.12;100.00
71195;BME280;58908;51.426;7.714;2023-08-12T11:57:25;99576.38;;;25.86;100.00
71195;BME280;58908;51.426;7.714;2023-08-12T11:59:52;99576.13;;;26.02;100.00
71195;BME280;58908;51.426;7.714;2023-08-12T12:02:19;99595.03;;;25.30;100.00
71195;BME280;58908;51.426;7.714;2023-08-12T12:04:46;99608.81;;;25.20;100.00
71195;BME280;58908;51.426;7.714;2023-08-12T12:07:19;99594.78;;;25.02;100.00
71195;BME280;58908;51.426;7.714;2023-08-12T12:09:46;99619.59;;;24.31;100.00
71195;BME280;58908;51.426;7.714;2023-08-12T12:12:12;99624.75;;;24.10;100.00
71195;BME280;58908;51.426;7.714;2023-08-12T12:14:40;99654.03;;;23.66;100.00
71195;BME280;58908;51.426;7.714;2023-08-12T12:17:07;99647.34;;;23.46;100.00
71195;BME280;58908;51.426;7.714;2023-08-12T12:19:33;99631.50;;;23.51;100.00
71195;BME280;58908;51.426;7.714;2023-08-12T12:22:01;99638.41;;;23.46;100.00
71195;BME280;58908;51.426;7.714;2023-08-12T12:24:28;99631.13;;;23.62;100.00
71195;BME280;58908;51.426;7.714;2023-08-12T12:26:55;99623.03;;;23.70;100.00
71195;BME280;58908;51.426;7.714;2023-08-12T12:29:22;99616.72;;;23.94;100.00
71195;BME280;58908;51.426;7.714;2023-08-12T12:31:50;99639.50;;;23.91;100.00
71195;BME280;58908;51.426;7.714;2023-08-12T12:34:16;99661.06;;;23.91;100.00
71195;BME280;58908;51.426;7.714;2023-08-12T12:36:43;99666.88;;;23.40;100.00
71195;BME280;58908;51.426;7.714;2023-08-12T12:39:09;99671.41;;;23.40;100.00
71195;BME280;58908;51.426;7.714;2023-08-12T12:41:35;99669.72;;;22.99;100.00
71195;BME280;58908;51.426;7.714;2023-08-12T12:44:02;99671.22;;;22.69;100.00
71195;BME280;58908;51.426;7.714;2023-08-12T12:46:28;99681.44;;;22.50;100.00
71195;BME280;58908;51.426;7.714;2023-08-12T12:48:56;99680.66;;;22.32;100.00